Time;durP1;ratioP1;P1;durP2;ratioP2;P2;SDS_P1;SDS_P2;PMS_P1;PMS_P2;Temp;Humidity;BMP_temperature;BMP_pressure;BME280_temperature;BME280_humidity;BME280_pressure;Samples;Min_cycle;Max_cycle;Signal;HPM_P1;HPM_P2
2021/08/07 00:02:22;;;;;;;14.25;8.45;;;;;;;21.28;70.77;99655.72;1658422;86;21394;-59
2021/08/07 00:05:29;;;;;;;13.95;7.60;;;;;;;21.26;71.02;99662.12;1658446;86;21342;-59
2021/08/07 00:08:35;;;;;;;14.33;8.05;;;;;;;21.21;71.17;99659.28;1658164;86;21272;-59
2021/08/07 00:11:40;;;;;;;15.38;8.08;;;;;;;21.21;71.36;99664.86;1658586;86;21207;-58
2021/08/07 00:14:45;;;;;;;12.73;7.20;;;;;;;21.20;71.34;99654.80;1658160;86;21321;-57
2021/08/07 00:17:50;;;;;;;11.10;6.85;;;;;;;21.18;71.35;99649.22;1651046;87;21221;-58
2021/08/07 00:20:56;;;;;;;15.18;7.50;;;;;;;21.14;71.51;99653.08;1650368;86;21244;-58
2021/08/07 00:24:00;;;;;;;14.50;7.33;;;;;;;21.06;71.63;99643.80;1654424;86;21561;-58
2021/08/07 00:27:05;;;;;;;16.12;8.15;;;;;;;20.98;72.03;99633.13;1665236;85;21317;-58
2021/08/07 00:30:12;;;;;;;17.20;7.62;;;;;;;20.97;72.36;99634.24;1671889;84;21336;-59
2021/08/07 00:33:19;;;;;;;16.45;7.92;;;;;;;20.96;72.43;99641.43;1692250;85;21297;-58
2021/08/07 00:36:27;;;;;;;14.47;7.85;;;;;;;20.92;72.70;99643.89;1692363;85;21475;-58
2021/08/07 00:39:32;;;;;;;11.83;7.53;;;;;;;20.90;72.90;99641.91;1692435;85;21268;-58
2021/08/07 00:42:38;;;;;;;13.90;8.00;;;;;;;20.91;72.98;99645.54;1692400;85;21725;-57
2021/08/07 00:45:49;;;;;;;12.10;7.78;;;;;;;20.86;73.08;99646.33;1699770;84;21395;-57
2021/08/07 00:48:58;;;;;;;17.10;8.18;;;;;;;20.83;73.33;99657.98;1699813;84;21374;-58
2021/08/07 00:52:04;;;;;;;11.15;7.67;;;;;;;20.81;73.40;99662.95;1699802;84;21367;-58
2021/08/07 00:55:14;;;;;;;12.15;7.75;;;;;;;20.79;73.45;99673.49;1699866;84;21386;-58
2021/08/07 00:58:19;;;;;;;12.43;8.18;;;;;;;20.72;73.72;99679.82;1705111;84;21217;-57
2021/08/07 01:01:25;;;;;;;12.18;7.85;;;;;;;20.68;73.89;99673.08;1705152;84;21264;-58
2021/08/07 01:04:36;;;;;;;10.00;7.15;;;;;;;20.63;74.03;99668.83;1705328;84;21768;-58
2021/08/07 01:08:00;;;;;;;12.70;8.03;;;;;;;20.59;74.24;99667.14;1705193;84;21236;-58
2021/08/07 01:11:34;;;;;;;13.38;7.90;;;;;;;20.54;74.30;99661.50;1705159;84;21307;-58
2021/08/07 01:14:44;;;;;;;12.60;7.33;;;;;;;20.49;74.58;99655.87;1705184;84;21220;-58
2021/08/07 01:17:51;;;;;;;12.00;7.60;;;;;;;20.46;74.78;99649.97;1705163;84;21267;-58
2021/08/07 01:21:01;;;;;;;13.85;7.17;;;;;;;20.42;74.90;99650.21;1705297;84;21253;-58
2021/08/07 01:24:32;;;;;;;14.45;7.65;;;;;;;20.40;75.22;99657.96;1698868;84;21864;-58
2021/08/07 01:27:45;;;;;;;12.20;7.72;;;;;;;20.39;75.46;99663.24;1699996;84;21443;-58
2021/08/07 01:30:57;;;;;;;12.90;7.80;;;;;;;20.39;75.66;99645.17;1699140;84;21359;-58
2021/08/07 01:34:05;;;;;;;13.30;7.30;;;;;;;20.36;75.67;99638.16;1699880;84;21434;-58
2021/08/07 01:37:11;;;;;;;10.90;7.92;;;;;;;20.33;75.63;99642.00;1700062;84;21261;-58
2021/08/07 01:40:22;;;;;;;21.27;8.85;;;;;;;20.30;75.85;99660.05;1681844;84;21371;-57
2021/08/07 01:43:30;;;;;;;11.48;8.00;;;;;;;20.28;75.81;99660.02;1700458;84;21265;-58
2021/08/07 01:46:50;;;;;;;13.28;8.58;;;;;;;20.27;75.70;99666.13;1699884;84;21403;-57
2021/08/07 01:50:19;;;;;;;16.93;8.60;;;;;;;20.24;75.55;99651.89;1699901;84;21872;-57
2021/08/07 01:53:31;;;;;;;11.50;7.85;;;;;;;20.19;75.75;99661.00;1699887;84;21355;-58
2021/08/07 01:56:42;;;;;;;11.40;7.77;;;;;;;20.17;75.88;99667.92;1700122;84;21240;-57
2021/08/07 01:59:49;;;;;;;14.35;7.80;;;;;;;20.15;75.85;99670.93;1700015;84;21378;-58
2021/08/07 02:02:56;;;;;;;14.98;7.70;;;;;;;20.15;75.90;99665.94;1699811;84;21395;-58
2021/08/07 02:06:03;;;;;;;15.50;8.48;;;;;;;20.15;75.84;99682.05;1699811;84;21375;-57
2021/08/07 02:09:10;;;;;;;13.10;8.73;;;;;;;20.16;75.80;99692.62;1699858;84;21355;-57
2021/08/07 02:12:20;;;;;;;15.72;9.40;;;;;;;20.13;75.75;99673.11;1699793;84;21265;-58
2021/08/07 02:15:29;;;;;;;15.00;9.58;;;;;;;20.13;76.05;99680.59;1700233;83;21228;-57
2021/08/07 02:18:37;;;;;;;38.17;21.12;;;;;;;20.15;76.21;99724.30;1699752;84;21422;-57
2021/08/07 02:21:44;;;;;;;40.38;22.35;;;;;;;20.11;75.91;99728.64;1699917;84;21406;-57
2021/08/07 02:24:50;;;;;;;27.45;17.20;;;;;;;20.04;75.92;99704.36;1699759;84;21410;-58
2021/08/07 02:27:58;;;;;;;19.80;12.80;;;;;;;20.00;76.09;99708.72;1629550;87;21366;-59
2021/08/07 02:31:05;;;;;;;15.38;8.90;;;;;;;20.00;76.12;99705.95;1699721;84;21793;-59
2021/08/07 02:34:13;;;;;;;18.80;10.55;;;;;;;20.01;76.11;99703.48;1647163;87;21209;-59
2021/08/07 02:37:20;;;;;;;14.55;9.70;;;;;;;20.00;76.19;99707.34;1662198;85;21717;-59
2021/08/07 02:40:28;;;;;;;12.78;7.53;;;;;;;20.00;76.24;99701.78;1650028;86;21399;-58
2021/08/07 02:43:34;;;;;;;14.75;8.55;;;;;;;20.03;76.50;99705.44;1657282;86;21212;-59
2021/08/07 02:46:40;;;;;;;15.83;8.63;;;;;;;20.06;76.66;99711.34;1658459;86;21292;-59
2021/08/07 02:49:47;;;;;;;13.13;8.23;;;;;;;20.08;76.89;99711.94;1658274;86;21358;-59
2021/08/07 02:52:55;;;;;;;14.75;9.85;;;;;;;20.11;76.90;99707.26;1647156;86;22000;-59
2021/08/07 02:56:01;;;;;;;16.87;9.88;;;;;;;20.15;76.98;99689.56;1652792;84;21264;-57
2021/08/07 02:59:07;;;;;;;16.50;9.60;;;;;;;20.22;77.12;99676.31;1703227;83;21819;-58
2021/08/07 03:02:15;;;;;;;17.15;9.48;;;;;;;20.31;77.24;99656.73;1703525;84;21221;-57
2021/08/07 03:05:23;;;;;;;18.65;10.13;;;;;;;20.38;77.11;99665.17;1701821;84;21232;-58
2021/08/07 03:08:30;;;;;;;14.40;9.93;;;;;;;20.46;76.87;99684.73;1701908;84;21240;-58
2021/08/07 03:11:37;;;;;;;20.82;12.05;;;;;;;20.52;76.62;99683.16;1702441;84;21216;-58
2021/08/07 03:14:46;;;;;;;17.48;10.88;;;;;;;20.58;76.27;99669.61;1709686;84;21891;-58
2021/08/07 03:17:51;;;;;;;20.65;12.10;;;;;;;20.64;75.81;99675.52;1709748;83;21165;-58
2021/08/07 03:20:58;;;;;;;18.17;10.82;;;;;;;20.71;75.61;99678.12;1695310;83;21216;-59
2021/08/07 03:24:09;;;;;;;37.42;33.05;;;;;;;20.78;75.33;99675.45;1710301;83;21295;-58
2021/08/07 03:27:16;;;;;;;22.02;16.27;;;;;;;20.88;75.04;99684.48;1710350;83;21824;-58
2021/08/07 03:30:24;;;;;;;17.45;12.35;;;;;;;20.95;74.68;99686.50;1709994;83;21358;-59
2021/08/07 03:33:31;;;;;;;19.17;12.13;;;;;;;21.03;74.28;99675.48;1727097;80;21367;-58
2021/08/07 03:36:37;;;;;;;19.75;12.37;;;;;;;21.09;73.89;99678.06;1746042;82;21355;-58
2021/08/07 03:39:43;;;;;;;23.20;12.40;;;;;;;21.14;73.64;99665.60;1746093;82;21386;-59
2021/08/07 03:42:50;;;;;;;17.90;12.30;;;;;;;21.22;73.54;99672.64;1730266;82;21224;-59
2021/08/07 03:45:57;;;;;;;15.63;11.15;;;;;;;21.26;73.24;99663.52;1746020;82;21438;-58
2021/08/07 03:49:06;;;;;;;16.82;10.85;;;;;;;21.35;73.05;99649.95;1745970;82;21757;-59
2021/08/07 03:52:12;;;;;;;17.05;11.00;;;;;;;21.41;73.03;99645.56;1746092;82;21402;-59
2021/08/07 03:55:17;;;;;;;17.65;11.65;;;;;;;21.48;72.75;99650.92;1745911;82;21363;-58
2021/08/07 03:58:23;;;;;;;14.33;9.78;;;;;;;21.53;72.56;99645.40;1704535;82;21256;-58
2021/08/07 04:01:35;;;;;;;15.25;10.38;;;;;;;21.57;72.24;99630.67;1746192;82;21343;-59
2021/08/07 04:04:44;;;;;;;16.97;9.88;;;;;;;21.64;72.09;99636.02;1744203;82;21347;-58
2021/08/07 04:07:49;;;;;;;19.42;10.55;;;;;;;21.69;71.69;99638.28;1704362;83;21216;-58
2021/08/07 04:10:55;;;;;;;15.43;9.60;;;;;;;21.74;71.57;99638.33;1694558;83;21219;-58
2021/08/07 04:14:03;;;;;;;13.53;9.20;;;;;;;21.78;71.71;99645.10;1711804;83;21355;-58
2021/08/07 04:17:11;;;;;;;14.70;9.03;;;;;;;21.82;71.89;99637.02;1688493;84;21530;-58
2021/08/07 04:20:19;;;;;;;15.08;8.35;;;;;;;21.88;71.70;99630.41;1704478;84;21228;-58
2021/08/07 04:23:25;;;;;;;11.57;8.50;;;;;;;21.95;71.55;99647.72;1703083;83;21355;-58
2021/08/07 04:26:32;;;;;;;11.38;8.45;;;;;;;22.03;71.13;99664.80;1702818;83;21418;-58
2021/08/07 04:29:39;;;;;;;15.43;9.35;;;;;;;22.10;70.84;99654.23;1697186;84;21283;-59
2021/08/07 04:32:45;;;;;;;13.88;7.65;;;;;;;22.20;70.60;99650.68;1703317;83;21331;-59
2021/08/07 04:35:52;;;;;;;13.80;7.50;;;;;;;22.28;70.31;99654.94;1709322;83;21366;-60
2021/08/07 04:38:58;;;;;;;10.53;7.50;;;;;;;22.38;70.29;99645.21;1710160;83;21418;-59
2021/08/07 04:42:03;;;;;;;15.23;8.15;;;;;;;22.49;69.64;99626.87;1710504;83;21244;-59
2021/08/07 04:45:10;;;;;;;10.18;6.62;;;;;;;22.64;69.02;99628.94;1710480;83;21243;-59
2021/08/07 04:48:15;;;;;;;14.40;7.65;;;;;;;22.75;68.70;99635.69;1695172;83;21780;-59
2021/08/07 04:51:24;;;;;;;12.03;7.55;;;;;;;22.83;68.38;99623.16;1710224;83;21236;-59
2021/08/07 04:54:30;;;;;;;14.50;7.53;;;;;;;22.93;68.13;99630.17;1710418;83;21184;-59
2021/08/07 04:57:37;;;;;;;14.35;7.10;;;;;;;23.06;68.39;99627.69;1710631;83;21362;-59
2021/08/07 05:00:43;;;;;;;11.73;7.95;;;;;;;23.19;68.26;99615.14;1710916;83;21417;-58
2021/08/07 05:03:50;;;;;;;12.80;8.15;;;;;;;23.30;68.27;99625.25;1710380;83;21330;-60
2021/08/07 05:06:55;;;;;;;12.07;7.00;;;;;;;23.39;67.86;99620.78;1710380;83;21832;-59
2021/08/07 05:10:01;;;;;;;12.20;7.50;;;;;;;23.43;66.69;99631.70;1710418;83;21441;-59
2021/08/07 05:13:08;;;;;;;15.83;9.45;;;;;;;23.47;66.19;99639.80;1710242;83;21343;-59
2021/08/07 05:16:15;;;;;;;14.60;9.35;;;;;;;23.51;66.12;99629.77;1699555;83;21296;-59
2021/08/07 05:19:21;;;;;;;13.78;8.73;;;;;;;23.57;66.08;99631.44;1677435;85;21344;-59
2021/08/07 05:22:27;;;;;;;11.70;7.22;;;;;;;23.62;65.95;99641.23;1675181;83;21224;-58
2021/08/07 05:25:34;;;;;;;13.58;8.43;;;;;;;23.66;65.88;99638.14;1685706;85;21903;-58
2021/08/07 05:28:39;;;;;;;10.70;6.78;;;;;;;23.73;66.42;99633.13;1685715;85;21216;-59
2021/08/07 05:31:45;;;;;;;11.93;7.92;;;;;;;23.81;66.83;99646.54;1680951;85;21332;-59
2021/08/07 05:34:51;;;;;;;10.60;7.80;;;;;;;23.89;66.53;99642.34;1682121;82;21212;-57
2021/08/07 05:37:57;;;;;;;12.73;8.13;;;;;;;23.97;66.51;99646.85;1702259;84;21331;-58
2021/08/07 05:41:04;;;;;;;12.55;7.30;;;;;;;24.08;65.57;99644.32;1708126;83;21239;-58
2021/08/07 05:44:13;;;;;;;14.20;9.55;;;;;;;24.17;65.80;99656.61;1713732;82;21553;-59
2021/08/07 05:47:18;;;;;;;13.88;9.43;;;;;;;24.28;66.29;99656.87;1707455;83;21213;-59
2021/08/07 05:50:24;;;;;;;13.00;10.15;;;;;;;24.34;66.50;99664.13;1711436;84;21296;-59
2021/08/07 05:53:30;;;;;;;15.80;10.03;;;;;;;24.39;66.34;99661.32;1711203;84;21217;-59
2021/08/07 05:56:36;;;;;;;11.28;9.78;;;;;;;24.47;66.04;99670.54;1709266;83;21389;-59
2021/08/07 05:59:43;;;;;;;12.82;10.03;;;;;;;24.53;65.80;99677.80;1701278;84;21380;-58
2021/08/07 06:02:47;;;;;;;16.77;11.30;;;;;;;24.61;65.32;99675.81;1711819;82;21201;-59
2021/08/07 06:05:58;;;;;;;12.90;10.80;;;;;;;24.73;65.43;99673.59;1697452;83;21229;-58
2021/08/07 06:09:05;;;;;;;12.90;11.28;;;;;;;24.89;64.57;99670.16;1697571;83;21224;-57
2021/08/07 06:12:13;;;;;;;12.82;10.95;;;;;;;25.04;64.04;99668.67;1711711;83;21229;-58
2021/08/07 06:15:18;;;;;;;13.38;8.88;;;;;;;25.17;63.95;99671.41;1716327;82;21224;-59
2021/08/07 06:18:23;;;;;;;11.35;8.55;;;;;;;25.32;63.66;99669.39;1715752;83;21193;-57
2021/08/07 06:21:29;;;;;;;13.58;8.83;;;;;;;25.41;62.93;99666.27;1715743;83;21864;-57
2021/08/07 06:24:36;;;;;;;13.32;7.70;;;;;;;25.46;61.98;99672.41;1715821;83;21216;-58
2021/08/07 06:27:45;;;;;;;15.53;8.58;;;;;;;25.47;61.74;99679.67;1711120;83;21911;-57
2021/08/07 06:30:54;;;;;;;14.23;8.20;;;;;;;25.47;61.65;99679.67;1686683;85;21237;-59
2021/08/07 06:34:02;;;;;;;10.13;7.08;;;;;;;25.50;61.52;99673.52;1686613;85;21200;-59
2021/08/07 06:37:08;;;;;;;11.75;6.67;;;;;;;25.56;60.43;99663.36;1694271;84;21205;-59
2021/08/07 06:40:15;;;;;;;7.85;6.08;;;;;;;25.64;59.94;99664.73;1703740;84;21701;-59
2021/08/07 06:43:22;;;;;;;8.93;6.30;;;;;;;25.70;59.17;99671.97;1702291;82;21185;-58
2021/08/07 06:46:34;;;;;;;12.10;6.28;;;;;;;25.75;58.55;99674.73;1644748;86;21320;-59
2021/08/07 06:49:41;;;;;;;10.78;6.30;;;;;;;25.80;57.68;99676.92;1647683;84;21239;-59
2021/08/07 06:52:46;;;;;;;9.80;5.45;;;;;;;25.86;57.25;99684.75;1642723;86;21215;-58
2021/08/07 06:55:55;;;;;;;9.43;5.70;;;;;;;25.92;57.37;99687.78;1621327;88;21920;-60
2021/08/07 06:59:00;;;;;;;8.55;5.35;;;;;;;26.02;57.08;99682.13;1729379;82;21347;-58
2021/08/07 07:02:06;;;;;;;8.03;5.87;;;;;;;26.15;56.80;99695.45;1701263;83;21221;-57
2021/08/07 07:05:15;;;;;;;10.78;5.78;;;;;;;26.24;55.79;99699.33;1733132;83;21237;-58
2021/08/07 07:08:22;;;;;;;8.00;5.25;;;;;;;26.28;55.31;99689.16;1728708;83;21347;-57
2021/08/07 07:11:28;;;;;;;9.25;5.50;;;;;;;26.34;55.15;99683.77;1728974;82;21939;-58
2021/08/07 07:14:36;;;;;;;10.48;5.70;;;;;;;26.40;54.81;99675.00;1720249;83;21379;-58
2021/08/07 07:17:44;;;;;;;7.65;5.40;;;;;;;26.49;54.86;99689.25;1718952;83;21212;-59
2021/08/07 07:20:53;;;;;;;7.47;5.08;;;;;;;26.62;54.44;99691.91;1685471;85;21438;-58
2021/08/07 07:23:59;;;;;;;8.13;5.42;;;;;;;26.74;53.78;99694.61;1656030;86;21248;-58
2021/08/07 07:27:05;;;;;;;8.75;6.25;;;;;;;26.88;53.82;99705.40;1657607;86;21240;-58
2021/08/07 07:30:17;;;;;;;13.78;6.70;;;;;;;26.98;53.66;99715.69;1726642;82;21398;-59
2021/08/07 07:33:23;;;;;;;13.30;6.65;;;;;;;27.05;53.75;99726.01;1713314;83;21415;-58
2021/08/07 07:36:30;;;;;;;11.93;6.47;;;;;;;27.05;53.03;99725.42;1688413;83;21283;-59
2021/08/07 07:39:38;;;;;;;12.50;6.00;;;;;;;27.05;53.16;99726.01;1665774;86;21250;-59
2021/08/07 07:42:44;;;;;;;8.68;6.60;;;;;;;27.03;53.22;99719.28;1654469;86;21230;-58
2021/08/07 07:45:50;;;;;;;10.98;7.47;;;;;;;27.05;53.69;99730.22;1665401;86;21446;-57
2021/08/07 07:48:57;;;;;;;10.10;6.50;;;;;;;27.08;54.05;99731.03;1665203;86;21795;-58
2021/08/07 07:52:03;;;;;;;15.95;6.90;;;;;;;27.11;53.97;99719.19;1665077;86;21250;-58
2021/08/07 07:55:09;;;;;;;12.40;6.90;;;;;;;27.20;54.49;99722.43;1618146;88;21287;-58
2021/08/07 07:58:16;;;;;;;11.65;6.05;;;;;;;27.30;53.83;99734.15;1614143;87;21227;-58
2021/08/07 08:01:22;;;;;;;9.98;6.30;;;;;;;27.34;53.22;99740.83;1612461;87;21247;-58
2021/08/07 08:04:29;;;;;;;10.75;6.53;;;;;;;27.34;53.27;99744.48;1614251;87;21464;-57
2021/08/07 08:07:36;;;;;;;12.47;6.83;;;;;;;27.42;53.00;99746.63;1618077;87;22230;-56
2021/08/07 08:10:44;;;;;;;9.60;5.72;;;;;;;27.54;52.74;99747.61;1650864;86;21727;-57
2021/08/07 08:13:50;;;;;;;9.75;6.42;;;;;;;27.64;51.98;99744.63;1614385;88;21806;-59
2021/08/07 08:16:57;;;;;;;12.45;6.17;;;;;;;27.72;51.17;99757.46;1612314;88;21788;-59
2021/08/07 08:20:05;;;;;;;9.73;6.10;;;;;;;27.77;51.23;99760.20;1650269;86;21209;-58
2021/08/07 08:23:11;;;;;;;11.65;6.10;;;;;;;27.83;50.95;99767.42;1660474;85;21399;-59
2021/08/07 08:26:17;;;;;;;12.23;6.37;;;;;;;27.81;50.64;99772.52;1660238;86;21229;-58
2021/08/07 08:29:24;;;;;;;8.63;5.62;;;;;;;27.77;51.01;99767.80;1607401;89;21802;-59
2021/08/07 08:32:31;;;;;;;10.85;6.50;;;;;;;27.82;51.14;99764.92;1641022;87;21480;-58
2021/08/07 08:35:37;;;;;;;10.58;6.17;;;;;;;27.86;51.27;99754.16;1631077;88;21253;-58
2021/08/07 08:38:49;;;;;;;12.15;6.17;;;;;;;27.92;51.45;99752.70;1634184;81;21695;-58
2021/08/07 08:41:56;;;;;;;11.00;5.83;;;;;;;27.94;51.40;99757.47;1648302;85;21248;-59
2021/08/07 08:45:06;;;;;;;10.30;6.50;;;;;;;27.95;51.21;99749.28;1660137;86;21242;-57
2021/08/07 08:48:14;;;;;;;12.85;6.90;;;;;;;27.96;50.77;99757.42;1660528;85;21227;-58
2021/08/07 08:51:25;;;;;;;9.53;6.45;;;;;;;27.91;50.75;99745.42;1651974;86;21238;-58
2021/08/07 08:54:32;;;;;;;10.58;6.42;;;;;;;27.92;50.96;99747.08;1664988;86;21258;-58
2021/08/07 08:57:38;;;;;;;13.90;6.90;;;;;;;27.93;51.32;99748.74;1665619;86;21327;-58
2021/08/07 09:00:45;;;;;;;11.03;6.90;;;;;;;28.00;51.44;99754.28;1665107;86;21799;-60
2021/08/07 09:03:53;;;;;;;12.07;7.08;;;;;;;28.01;50.94;99748.05;1645205;84;21227;-59
2021/08/07 09:06:58;;;;;;;13.00;7.53;;;;;;;28.03;51.18;99754.22;1650541;86;21257;-57
2021/08/07 09:10:08;;;;;;;12.10;6.60;;;;;;;28.13;50.83;99766.73;1631455;86;21873;-58
2021/08/07 09:13:18;;;;;;;14.18;6.42;;;;;;;28.22;50.12;99771.94;1643953;86;21241;-59
2021/08/07 09:16:27;;;;;;;11.08;6.25;;;;;;;28.32;49.89;99792.89;1670083;85;21281;-60
2021/08/07 09:19:50;;;;;;;10.30;6.70;;;;;;;28.35;49.79;99793.09;1667887;85;21416;-60
2021/08/07 09:22:58;;;;;;;13.50;7.35;;;;;;;28.45;50.00;99796.31;1667748;86;21886;-60
2021/08/07 09:26:06;;;;;;;12.47;6.90;;;;;;;28.53;49.74;99792.27;1668249;85;21442;-60
2021/08/07 09:29:14;;;;;;;12.20;6.28;;;;;;;28.59;49.45;99812.75;1670788;84;21224;-59
2021/08/07 09:32:19;;;;;;;10.08;6.37;;;;;;;28.61;49.49;99824.53;1645052;87;21240;-59
2021/08/07 09:35:40;;;;;;;12.03;6.47;;;;;;;28.63;49.20;99822.25;1632816;88;21890;-59
2021/08/07 09:38:53;;;;;;;13.15;6.60;;;;;;;28.69;49.26;99804.11;1636512;86;21219;-61
2021/08/07 09:42:05;;;;;;;14.40;7.05;;;;;;;28.74;49.03;99783.73;1698137;84;21761;-59
2021/08/07 09:45:18;;;;;;;12.25;6.95;;;;;;;28.82;48.61;99784.43;1681829;84;21526;-61
2021/08/07 09:48:25;;;;;;;10.68;6.95;;;;;;;28.79;48.39;99797.73;1645931;86;21209;-58
2021/08/07 09:51:41;;;;;;;11.35;6.45;;;;;;;28.80;48.78;99795.73;1676504;84;21631;-58
2021/08/07 09:54:50;;;;;;;10.05;6.35;;;;;;;28.83;48.84;99790.88;1646077;86;22078;-59
2021/08/07 09:58:15;;;;;;;11.47;6.50;;;;;;;28.88;48.42;99789.39;1677099;84;21844;-59
2021/08/07 10:01:36;;;;;;;13.38;6.83;;;;;;;28.84;48.76;99770.03;1677171;85;21869;-58
2021/08/07 10:04:47;;;;;;;11.25;6.80;;;;;;;28.92;48.54;99772.13;1646222;86;21225;-58
2021/08/07 10:08:11;;;;;;;9.60;6.47;;;;;;;28.91;48.84;99768.47;1676653;84;21336;-58
2021/08/07 10:11:19;;;;;;;11.33;6.65;;;;;;;29.02;48.89;99764.87;1650160;85;21249;-59
2021/08/07 10:14:28;;;;;;;11.75;7.22;;;;;;;29.20;48.39;99755.53;1659153;85;21231;-59
2021/08/07 10:17:34;;;;;;;11.93;6.85;;;;;;;29.37;47.41;99759.14;1642089;87;21239;-60
2021/08/07 10:20:40;;;;;;;11.57;7.15;;;;;;;29.48;47.04;99760.00;1641832;87;21408;-59
2021/08/07 10:23:48;;;;;;;11.63;7.47;;;;;;;29.54;46.94;99767.23;1641762;87;21251;-57
2021/08/07 10:26:58;;;;;;;10.80;6.87;;;;;;;29.61;46.26;99775.23;1641709;87;21804;-58
2021/08/07 10:30:06;;;;;;;9.58;6.72;;;;;;;29.68;45.87;99782.19;1641606;87;21373;-58
2021/08/07 10:33:12;;;;;;;12.47;7.22;;;;;;;29.85;45.65;99783.77;1626668;87;21345;-59
2021/08/07 10:36:20;;;;;;;13.20;7.40;;;;;;;30.01;45.08;99780.85;1641704;87;21400;-59
2021/08/07 10:39:28;;;;;;;10.25;6.75;;;;;;;30.08;44.60;99777.59;1626795;87;21371;-58
2021/08/07 10:42:34;;;;;;;10.70;7.50;;;;;;;30.14;44.34;99777.16;1658607;84;21822;-59
2021/08/07 10:45:43;;;;;;;12.07;7.55;;;;;;;30.20;44.43;99784.91;1649046;83;21288;-58
2021/08/07 10:48:54;;;;;;;12.70;7.60;;;;;;;30.20;44.43;99784.91;1643425;83;21806;-58
2021/08/07 10:52:01;;;;;;;13.45;7.65;;;;;;;30.24;44.16;99786.80;1660425;85;21837;-59
2021/08/07 10:55:10;;;;;;;11.97;8.88;;;;;;;30.25;44.35;99785.67;1663227;85;21244;-58
2021/08/07 10:58:45;;;;;;;13.45;7.60;;;;;;;30.22;43.69;99783.46;1657516;85;21777;-58
2021/08/07 11:02:00;;;;;;;10.85;7.17;;;;;;;30.22;43.88;99785.47;1669671;84;21314;-58
2021/08/07 11:05:05;;;;;;;10.15;7.00;;;;;;;30.28;43.97;99776.56;1665260;85;21414;-58
2021/08/07 11:08:25;;;;;;;12.60;7.72;;;;;;;30.38;44.02;99776.28;1654567;85;21216;-59
2021/08/07 11:11:40;;;;;;;11.20;7.20;;;;;;;30.47;44.06;99780.03;1654449;86;21243;-59
2021/08/07 11:14:50;;;;;;;11.53;7.08;;;;;;;30.63;44.05;99775.66;1651176;85;21794;-59
2021/08/07 11:17:56;;;;;;;10.60;7.47;;;;;;;30.77;43.32;99786.06;1641093;86;21551;-58
2021/08/07 11:21:06;;;;;;;14.53;7.50;;;;;;;30.77;43.32;99786.06;1641740;87;21396;-59
2021/08/07 11:24:12;;;;;;;9.20;7.05;;;;;;;30.76;43.32;99763.17;1642246;87;21359;-59
2021/08/07 11:27:18;;;;;;;11.60;8.13;;;;;;;30.73;43.73;99753.93;1642300;87;21436;-59
2021/08/07 11:30:37;;;;;;;11.57;7.42;;;;;;;30.80;43.00;99764.21;1627781;84;21428;-59
2021/08/07 11:33:44;;;;;;;13.35;7.78;;;;;;;30.81;42.91;99761.06;1624142;84;21282;-58
2021/08/07 11:37:15;;;;;;;12.45;8.10;;;;;;;30.96;42.84;99766.88;1655175;86;21258;-59
2021/08/07 11:40:22;;;;;;;13.38;7.47;;;;;;;31.05;41.99;99777.69;1655057;86;21384;-59
2021/08/07 11:43:40;;;;;;;11.95;7.97;;;;;;;31.11;42.06;99783.45;1675200;81;21790;-59
2021/08/07 11:46:47;;;;;;;14.83;8.20;;;;;;;31.22;41.57;99772.09;1668120;85;21231;-59
2021/08/07 11:49:57;;;;;;;15.85;8.78;;;;;;;31.24;41.61;99794.64;1668282;86;21266;-59
2021/08/07 11:53:02;;;;;;;11.63;8.38;;;;;;;31.21;41.12;99794.45;1668375;86;21593;-58
2021/08/07 11:56:13;;;;;;;15.78;8.50;;;;;;;31.09;41.24;99809.80;1668565;86;21278;-59
2021/08/07 11:59:19;;;;;;;10.18;8.73;;;;;;;30.91;40.51;99814.52;1668935;86;21777;-60
2021/08/07 12:02:29;;;;;;;16.00;9.28;;;;;;;30.73;40.85;99812.72;1653842;86;21930;-59
2021/08/07 12:05:36;;;;;;;12.07;8.50;;;;;;;30.58;41.13;99800.38;1670367;85;21835;-59
2021/08/07 12:08:43;;;;;;;11.83;8.50;;;;;;;30.49;41.35;99799.48;1651648;84;21373;-60
2021/08/07 12:11:49;;;;;;;11.80;9.50;;;;;;;30.54;41.83;99805.02;1641111;87;21950;-60
2021/08/07 12:14:56;;;;;;;18.95;8.75;;;;;;;30.71;41.29;99797.22;1641188;87;21365;-60
2021/08/07 12:18:06;;;;;;;11.93;8.33;;;;;;;30.87;40.59;99809.83;1641230;87;21368;-59
2021/08/07 12:21:13;;;;;;;12.70;7.75;;;;;;;30.98;41.04;99806.99;1641432;87;21413;-58
2021/08/07 12:24:31;;;;;;;14.43;8.25;;;;;;;31.02;40.95;99814.50;1646236;85;21841;-59
2021/08/07 12:27:37;;;;;;;13.05;9.00;;;;;;;31.02;41.10;99820.72;1688148;83;21487;-59
2021/08/07 12:30:46;;;;;;;10.63;8.05;;;;;;;30.92;41.31;99822.43;1689452;83;21434;-59
2021/08/07 12:33:51;;;;;;;12.07;7.20;;;;;;;30.70;41.31;99821.81;1688782;84;21277;-58
2021/08/07 12:37:30;;;;;;;12.40;7.47;;;;;;;30.47;41.67;99806.03;1664517;83;21251;-59
2021/08/07 12:40:26;;;;;;;10.43;8.18;;;;;;;30.29;42.08;99799.40;1669408;84;21259;-59
2021/08/07 12:43:43;;;;;;;15.85;8.23;;;;;;;30.20;42.31;99791.41;1673411;85;21407;-59
2021/08/07 12:47:00;;;;;;;12.55;7.40;;;;;;;30.21;42.59;99796.48;1714416;83;21374;-61
2021/08/07 12:50:05;;;;;;;12.43;7.37;;;;;;;30.31;42.81;99805.58;1714989;83;21734;-59
2021/08/07 12:53:12;;;;;;;13.20;7.22;;;;;;;30.41;42.81;99801.06;1696771;83;21737;-59
2021/08/07 12:56:18;;;;;;;12.85;7.28;;;;;;;30.52;42.03;99792.59;1714780;83;21241;-58
2021/08/07 12:59:26;;;;;;;11.83;7.47;;;;;;;30.60;42.73;99792.42;1715141;83;21348;-57
2021/08/07 13:02:33;;;;;;;9.93;7.00;;;;;;;30.59;42.65;99796.38;1714660;83;21229;-59
2021/08/07 13:05:43;;;;;;;11.08;7.37;;;;;;;30.46;43.07;99802.36;1714860;83;21686;-58
2021/08/07 13:08:49;;;;;;;13.00;7.47;;;;;;;30.31;43.11;99797.09;1714437;83;21438;-57
2021/08/07 13:12:25;;;;;;;11.63;7.65;;;;;;;30.22;44.42;99797.58;1714613;83;21379;-59
2021/08/07 13:15:31;;;;;;;17.07;9.40;;;;;;;30.23;45.03;99810.56;1714789;83;21260;-56
2021/08/07 13:18:38;;;;;;;16.17;9.70;;;;;;;30.22;46.38;99808.06;1714300;82;21199;-59
2021/08/07 13:21:43;;;;;;;17.07;10.40;;;;;;;30.23;48.20;99817.63;1704193;83;21328;-58
2021/08/07 13:24:51;;;;;;;20.02;10.60;;;;;;;30.15;48.98;99820.33;1710688;82;21365;-57
2021/08/07 13:27:58;;;;;;;19.95;9.90;;;;;;;30.07;49.71;99827.58;1718262;83;21206;-59
2021/08/07 13:31:04;;;;;;;17.95;10.10;;;;;;;30.07;49.71;99827.58;1695191;83;21264;-59
2021/08/07 13:34:11;;;;;;;16.52;9.25;;;;;;;30.08;49.97;99841.13;1707625;83;21287;-58
2021/08/07 13:37:17;;;;;;;14.30;9.68;;;;;;;30.07;50.02;99846.50;1676710;84;21491;-59
2021/08/07 13:40:26;;;;;;;17.62;9.65;;;;;;;30.07;50.02;99846.50;1669262;85;21278;-59
2021/08/07 13:43:32;;;;;;;16.17;9.20;;;;;;;30.03;49.95;99843.46;1669247;85;21270;-60
2021/08/07 13:46:39;;;;;;;17.12;9.50;;;;;;;30.00;50.05;99848.93;1662483;85;21206;-59
2021/08/07 13:49:47;;;;;;;19.02;9.95;;;;;;;29.89;50.25;99844.06;1650061;87;21285;-59
2021/08/07 13:52:54;;;;;;;14.73;8.38;;;;;;;29.89;50.25;99844.06;1650938;87;21869;-60
2021/08/07 13:56:00;;;;;;;14.03;8.93;;;;;;;29.88;50.11;99843.81;1649936;87;21399;-59
2021/08/07 13:59:07;;;;;;;14.73;8.38;;;;;;;29.80;49.79;99853.02;1664543;84;21367;-59
2021/08/07 14:02:16;;;;;;;16.15;8.38;;;;;;;29.80;49.79;99853.02;1704818;84;21256;-60
2021/08/07 14:05:23;;;;;;;14.73;9.15;;;;;;;29.80;49.88;99860.08;1683583;84;21254;-60
2021/08/07 14:08:30;;;;;;;16.40;9.48;;;;;;;29.82;50.31;99863.44;1641410;87;21360;-56
2021/08/07 14:11:36;;;;;;;14.07;9.93;;;;;;;29.79;50.17;99867.45;1641236;87;21396;-56
2021/08/07 14:14:42;;;;;;;18.67;9.53;;;;;;;29.79;50.17;99867.45;1626229;87;21883;-56
2021/08/07 14:17:47;;;;;;;19.48;10.13;;;;;;;29.80;49.66;99867.14;1626913;87;21234;-54
2021/08/07 14:20:54;;;;;;;14.80;9.60;;;;;;;29.75;49.37;99874.30;1641883;87;21309;-55
2021/08/07 14:24:02;;;;;;;14.58;9.20;;;;;;;29.72;49.15;99880.57;1641957;87;21282;-60
2021/08/07 14:27:09;;;;;;;14.85;9.25;;;;;;;29.68;49.27;99873.89;1641793;87;21294;-60
2021/08/07 14:30:16;;;;;;;12.00;8.98;;;;;;;29.61;49.42;99883.87;1645681;84;22144;-60
2021/08/07 14:33:21;;;;;;;13.48;9.05;;;;;;;29.50;49.75;99883.81;1641566;87;21863;-60
2021/08/07 14:36:28;;;;;;;17.15;12.55;;;;;;;29.31;49.84;99877.41;1649663;84;21234;-60